sensor_id;sensor_type;location;lat;lon;timestamp;P1;durP1;ratioP1;P2;durP2;ratioP2
59040;SDS011;44825;53.200;6.448;2022-07-05T00:00:06;6.22;;;2.28;;
59040;SDS011;44825;53.200;6.448;2022-07-05T00:02:35;4.63;;;2.38;;
59040;SDS011;44825;53.200;6.448;2022-07-05T00:05:02;5.78;;;2.08;;
59040;SDS011;44825;53.200;6.448;2022-07-05T00:07:30;5.88;;;2.30;;
59040;SDS011;44825;53.200;6.448;2022-07-05T00:09:58;6.80;;;1.98;;
59040;SDS011;44825;53.200;6.448;2022-07-05T00:12:26;3.85;;;2.10;;
59040;SDS011;44825;53.200;6.448;2022-07-05T00:14:57;6.15;;;2.30;;
59040;SDS011;44825;53.200;6.448;2022-07-05T00:17:24;3.47;;;2.03;;
59040;SDS011;44825;53.200;6.448;2022-07-05T00:19:52;4.55;;;2.58;;
59040;SDS011;44825;53.200;6.448;2022-07-05T00:22:19;4.22;;;2.15;;
59040;SDS011;44825;53.200;6.448;2022-07-05T00:24:47;5.30;;;2.58;;
59040;SDS011;44825;53.200;6.448;2022-07-05T00:27:16;5.95;;;2.30;;
59040;SDS011;44825;53.200;6.448;2022-07-05T00:29:43;5.63;;;2.22;;
59040;SDS011;44825;53.200;6.448;2022-07-05T00:32:12;5.05;;;2.30;;
59040;SDS011;44825;53.200;6.448;2022-07-05T00:34:39;6.65;;;2.25;;
59040;SDS011;44825;53.200;6.448;2022-07-05T00:37:06;7.03;;;2.30;;
59040;SDS011;44825;53.200;6.448;2022-07-05T00:39:34;7.22;;;2.80;;
59040;SDS011;44825;53.200;6.448;2022-07-05T00:42:01;4.45;;;2.03;;
59040;SDS011;44825;53.200;6.448;2022-07-05T00:44:29;6.75;;;2.80;;
59040;SDS011;44825;53.200;6.448;2022-07-05T00:46:58;5.65;;;2.45;;
59040;SDS011;44825;53.200;6.448;2022-07-05T00:49:26;4.80;;;2.45;;
59040;SDS011;44825;53.200;6.448;2022-07-05T00:51:54;4.55;;;2.17;;
59040;SDS011;44825;53.200;6.448;2022-07-05T00:54:21;5.43;;;2.50;;
59040;SDS011;44825;53.200;6.448;2022-07-05T00:56:49;5.40;;;2.40;;
59040;SDS011;44825;53.200;6.448;2022-07-05T00:59:16;5.28;;;2.40;;
59040;SDS011;44825;53.200;6.448;2022-07-05T01:01:44;6.20;;;2.90;;
59040;SDS011;44825;53.200;6.448;2022-07-05T01:04:11;6.82;;;2.78;;
59040;SDS011;44825;53.200;6.448;2022-07-05T01:06:40;6.72;;;2.60;;
59040;SDS011;44825;53.200;6.448;2022-07-05T01:09:11;5.35;;;2.70;;
59040;SDS011;44825;53.200;6.448;2022-07-05T01:11:40;7.50;;;2.72;;
59040;SDS011;44825;53.200;6.448;2022-07-05T01:14:08;6.32;;;2.60;;
59040;SDS011;44825;53.200;6.448;2022-07-05T01:16:37;4.32;;;2.22;;
59040;SDS011;44825;53.200;6.448;2022-07-05T01:19:04;5.68;;;2.90;;
59040;SDS011;44825;53.200;6.448;2022-07-05T01:21:33;5.57;;;2.83;;
59040;SDS011;44825;53.200;6.448;2022-07-05T01:24:07;5.50;;;2.33;;
59040;SDS011;44825;53.200;6.448;2022-07-05T01:26:36;5.75;;;2.40;;
59040;SDS011;44825;53.200;6.448;2022-07-05T01:29:04;7.97;;;3.47;;
59040;SDS011;44825;53.200;6.448;2022-07-05T01:31:31;9.07;;;2.90;;
59040;SDS011;44825;53.200;6.448;2022-07-05T01:33:59;6.07;;;2.55;;
59040;SDS011;44825;53.200;6.448;2022-07-05T01:36:26;7.15;;;3.05;;
59040;SDS011;44825;53.200;6.448;2022-07-05T01:38:54;5.65;;;3.17;;
59040;SDS011;44825;53.200;6.448;2022-07-05T01:41:23;8.25;;;2.72;;
59040;SDS011;44825;53.200;6.448;2022-07-05T01:43:50;8.40;;;3.35;;
59040;SDS011;44825;53.200;6.448;2022-07-05T01:46:17;7.28;;;3.00;;
59040;SDS011;44825;53.200;6.448;2022-07-05T01:48:48;8.25;;;2.92;;
59040;SDS011;44825;53.200;6.448;2022-07-05T01:51:18;4.88;;;2.85;;
59040;SDS011;44825;53.200;6.448;2022-07-05T01:53:49;7.72;;;3.28;;
59040;SDS011;44825;53.200;6.448;2022-07-05T01:56:18;11.38;;;3.88;;
59040;SDS011;44825;53.200;6.448;2022-07-05T01:58:47;7.35;;;4.00;;
59040;SDS011;44825;53.200;6.448;2022-07-05T02:01:30;6.28;;;3.35;;
59040;SDS011;44825;53.200;6.448;2022-07-05T02:03:59;7.93;;;4.03;;
59040;SDS011;44825;53.200;6.448;2022-07-05T02:06:26;9.68;;;3.55;;
59040;SDS011;44825;53.200;6.448;2022-07-05T02:08:53;5.75;;;3.50;;
59040;SDS011;44825;53.200;6.448;2022-07-05T02:11:20;6.95;;;3.45;;
59040;SDS011;44825;53.200;6.448;2022-07-05T02:13:49;5.47;;;3.42;;
59040;SDS011;44825;53.200;6.448;2022-07-05T02:16:16;7.63;;;4.25;;
59040;SDS011;44825;53.200;6.448;2022-07-05T02:18:44;6.53;;;3.88;;
59040;SDS011;44825;53.200;6.448;2022-07-05T02:21:11;7.20;;;3.65;;
59040;SDS011;44825;53.200;6.448;2022-07-05T02:23:39;5.40;;;3.60;;
59040;SDS011;44825;53.200;6.448;2022-07-05T02:26:06;7.68;;;4.82;;
59040;SDS011;44825;53.200;6.448;2022-07-05T02:28:33;9.27;;;5.00;;
59040;SDS011;44825;53.200;6.448;2022-07-05T02:31:02;7.93;;;5.00;;
59040;SDS011;44825;53.200;6.448;2022-07-05T02:33:29;9.13;;;5.22;;
59040;SDS011;44825;53.200;6.448;2022-07-05T02:35:57;6.30;;;4.75;;
59040;SDS011;44825;53.200;6.448;2022-07-05T02:38:31;9.05;;;5.60;;
59040;SDS011;44825;53.200;6.448;2022-07-05T02:40:58;10.73;;;7.03;;
59040;SDS011;44825;53.200;6.448;2022-07-05T02:43:25;10.27;;;6.95;;
59040;SDS011;44825;53.200;6.448;2022-07-05T02:45:53;10.52;;;6.55;;
59040;SDS011;44825;53.200;6.448;2022-07-05T02:48:22;10.43;;;6.57;;
59040;SDS011;44825;53.200;6.448;2022-07-05T02:50:49;9.43;;;5.70;;
59040;SDS011;44825;53.200;6.448;2022-07-05T02:53:16;9.68;;;4.72;;
59040;SDS011;44825;53.200;6.448;2022-07-05T02:55:44;8.23;;;4.53;;
59040;SDS011;44825;53.200;6.448;2022-07-05T02:58:11;6.82;;;4.22;;
59040;SDS011;44825;53.200;6.448;2022-07-05T03:00:38;7.32;;;4.15;;
59040;SDS011;44825;53.200;6.448;2022-07-05T03:03:06;5.45;;;3.83;;
59040;SDS011;44825;53.200;6.448;2022-07-05T03:05:34;6.00;;;3.85;;
59040;SDS011;44825;53.200;6.448;2022-07-05T03:08:02;6.15;;;4.03;;
59040;SDS011;44825;53.200;6.448;2022-07-05T03:10:29;7.18;;;4.55;;
59040;SDS011;44825;53.200;6.448;2022-07-05T03:12:56;7.72;;;4.47;;
59040;SDS011;44825;53.200;6.448;2022-07-05T03:15:24;5.97;;;3.63;;
59040;SDS011;44825;53.200;6.448;2022-07-05T03:17:51;7.28;;;4.35;;
59040;SDS011;44825;53.200;6.448;2022-07-05T03:20:18;8.57;;;4.10;;
59040;SDS011;44825;53.200;6.448;2022-07-05T03:22:47;5.65;;;3.92;;
59040;SDS011;44825;53.200;6.448;2022-07-05T03:25:15;6.65;;;3.72;;
59040;SDS011;44825;53.200;6.448;2022-07-05T03:27:42;6.47;;;4.70;;
59040;SDS011;44825;53.200;6.448;2022-07-05T03:30:10;8.35;;;4.32;;
59040;SDS011;44825;53.200;6.448;2022-07-05T03:32:38;7.13;;;4.22;;
59040;SDS011;44825;53.200;6.448;2022-07-05T03:35:05;7.32;;;3.70;;
59040;SDS011;44825;53.200;6.448;2022-07-05T03:37:34;7.03;;;3.80;;
59040;SDS011;44825;53.200;6.448;2022-07-05T03:40:04;7.68;;;4.15;;
59040;SDS011;44825;53.200;6.448;2022-07-05T03:42:32;7.93;;;4.38;;
59040;SDS011;44825;53.200;6.448;2022-07-05T03:45:00;7.25;;;4.63;;
59040;SDS011;44825;53.200;6.448;2022-07-05T03:47:28;7.60;;;4.30;;
59040;SDS011;44825;53.200;6.448;2022-07-05T03:49:55;8.35;;;4.57;;
59040;SDS011;44825;53.200;6.448;2022-07-05T03:52:22;6.80;;;4.25;;
59040;SDS011;44825;53.200;6.448;2022-07-05T03:54:50;6.43;;;3.75;;
59040;SDS011;44825;53.200;6.448;2022-07-05T03:57:18;6.53;;;4.43;;
59040;SDS011;44825;53.200;6.448;2022-07-05T03:59:46;6.93;;;3.85;;
59040;SDS011;44825;53.200;6.448;2022-07-05T04:02:13;6.53;;;3.92;;
59040;SDS011;44825;53.200;6.448;2022-07-05T04:04:40;7.60;;;4.20;;
59040;SDS011;44825;53.200;6.448;2022-07-05T04:07:08;7.05;;;4.07;;
59040;SDS011;44825;53.200;6.448;2022-07-05T04:09:35;6.65;;;3.88;;
59040;SDS011;44825;53.200;6.448;2022-07-05T04:12:03;6.95;;;3.78;;
59040;SDS011;44825;53.200;6.448;2022-07-05T04:14:32;7.78;;;4.18;;
59040;SDS011;44825;53.200;6.448;2022-07-05T04:17:00;6.30;;;3.85;;
59040;SDS011;44825;53.200;6.448;2022-07-05T04:19:27;7.40;;;4.07;;
59040;SDS011;44825;53.200;6.448;2022-07-05T04:21:55;6.90;;;4.50;;
59040;SDS011;44825;53.200;6.448;2022-07-05T04:24:23;8.43;;;4.60;;
59040;SDS011;44825;53.200;6.448;2022-07-05T04:26:50;7.43;;;3.58;;
59040;SDS011;44825;53.200;6.448;2022-07-05T04:29:18;5.45;;;3.88;;
59040;SDS011;44825;53.200;6.448;2022-07-05T04:31:46;7.45;;;3.42;;
59040;SDS011;44825;53.200;6.448;2022-07-05T04:34:14;8.63;;;3.50;;
59040;SDS011;44825;53.200;6.448;2022-07-05T04:36:41;8.40;;;3.70;;
59040;SDS011;44825;53.200;6.448;2022-07-05T04:39:08;9.50;;;3.60;;
59040;SDS011;44825;53.200;6.448;2022-07-05T04:41:36;7.07;;;3.50;;
59040;SDS011;44825;53.200;6.448;2022-07-05T04:44:03;6.40;;;3.30;;
59040;SDS011;44825;53.200;6.448;2022-07-05T04:46:31;6.53;;;3.25;;
59040;SDS011;44825;53.200;6.448;2022-07-05T04:48:59;7.65;;;3.13;;
59040;SDS011;44825;53.200;6.448;2022-07-05T04:51:27;6.32;;;3.10;;
59040;SDS011;44825;53.200;6.448;2022-07-05T04:53:55;7.43;;;3.45;;
59040;SDS011;44825;53.200;6.448;2022-07-05T04:56:22;6.07;;;3.25;;
59040;SDS011;44825;53.200;6.448;2022-07-05T04:58:49;5.43;;;3.10;;
59040;SDS011;44825;53.200;6.448;2022-07-05T05:01:17;5.82;;;3.45;;
59040;SDS011;44825;53.200;6.448;2022-07-05T05:03:44;6.85;;;3.30;;
59040;SDS011;44825;53.200;6.448;2022-07-05T05:06:13;5.57;;;3.40;;
59040;SDS011;44825;53.200;6.448;2022-07-05T05:08:40;7.38;;;3.35;;
59040;SDS011;44825;53.200;6.448;2022-07-05T05:11:08;4.97;;;3.15;;
59040;SDS011;44825;53.200;6.448;2022-07-05T05:13:36;5.90;;;3.20;;
59040;SDS011;44825;53.200;6.448;2022-07-05T05:16:03;6.75;;;3.67;;
59040;SDS011;44825;53.200;6.448;2022-07-05T05:18:34;8.10;;;3.97;;
59040;SDS011;44825;53.200;6.448;2022-07-05T05:21:01;5.97;;;2.88;;
59040;SDS011;44825;53.200;6.448;2022-07-05T05:23:30;6.18;;;3.17;;
59040;SDS011;44825;53.200;6.448;2022-07-05T05:25:57;7.15;;;3.08;;
59040;SDS011;44825;53.200;6.448;2022-07-05T05:28:24;6.80;;;3.08;;
59040;SDS011;44825;53.200;6.448;2022-07-05T05:30:52;12.65;;;3.00;;
59040;SDS011;44825;53.200;6.448;2022-07-05T05:33:19;7.18;;;2.38;;
59040;SDS011;44825;53.200;6.448;2022-07-05T05:35:46;5.07;;;2.47;;
59040;SDS011;44825;53.200;6.448;2022-07-05T05:38:13;6.38;;;2.55;;
59040;SDS011;44825;53.200;6.448;2022-07-05T05:40:42;4.45;;;2.40;;
59040;SDS011;44825;53.200;6.448;2022-07-05T05:43:10;5.55;;;2.00;;
59040;SDS011;44825;53.200;6.448;2022-07-05T05:45:37;7.07;;;2.30;;
59040;SDS011;44825;53.200;6.448;2022-07-05T05:48:05;4.63;;;1.85;;
59040;SDS011;44825;53.200;6.448;2022-07-05T05:50:33;7.20;;;1.98;;
59040;SDS011;44825;53.200;6.448;2022-07-05T05:53:01;6.38;;;1.65;;
59040;SDS011;44825;53.200;6.448;2022-07-05T05:55:29;4.45;;;1.85;;
59040;SDS011;44825;53.200;6.448;2022-07-05T05:58:10;5.75;;;1.60;;
59040;SDS011;44825;53.200;6.448;2022-07-05T06:00:39;4.57;;;1.73;;
59040;SDS011;44825;53.200;6.448;2022-07-05T06:03:06;4.18;;;1.30;;
59040;SDS011;44825;53.200;6.448;2022-07-05T06:05:33;4.43;;;1.52;;
59040;SDS011;44825;53.200;6.448;2022-07-05T06:08:01;4.32;;;1.48;;
59040;SDS011;44825;53.200;6.448;2022-07-05T06:10:29;5.32;;;1.63;;
59040;SDS011;44825;53.200;6.448;2022-07-05T06:12:58;5.93;;;1.50;;
59040;SDS011;44825;53.200;6.448;2022-07-05T06:15:28;7.88;;;1.50;;
59040;SDS011;44825;53.200;6.448;2022-07-05T06:17:55;3.25;;;1.10;;
59040;SDS011;44825;53.200;6.448;2022-07-05T06:20:24;6.30;;;1.30;;
59040;SDS011;44825;53.200;6.448;2022-07-05T06:22:54;2.50;;;0.95;;
59040;SDS011;44825;53.200;6.448;2022-07-05T06:25:22;3.85;;;1.05;;
59040;SDS011;44825;53.200;6.448;2022-07-05T06:27:50;6.93;;;1.50;;
59040;SDS011;44825;53.200;6.448;2022-07-05T06:30:19;4.00;;;1.30;;
59040;SDS011;44825;53.200;6.448;2022-07-05T06:32:50;6.70;;;1.77;;
59040;SDS011;44825;53.200;6.448;2022-07-05T06:35:18;5.90;;;1.60;;
59040;SDS011;44825;53.200;6.448;2022-07-05T06:37:47;4.55;;;0.90;;
59040;SDS011;44825;53.200;6.448;2022-07-05T06:40:17;5.30;;;1.08;;
59040;SDS011;44825;53.200;6.448;2022-07-05T06:42:46;12.98;;;2.42;;
59040;SDS011;44825;53.200;6.448;2022-07-05T06:45:13;8.07;;;1.33;;
59040;SDS011;44825;53.200;6.448;2022-07-05T06:47:41;5.00;;;1.30;;
59040;SDS011;44825;53.200;6.448;2022-07-05T06:50:10;4.40;;;1.00;;
59040;SDS011;44825;53.200;6.448;2022-07-05T06:52:37;8.35;;;1.48;;
59040;SDS011;44825;53.200;6.448;2022-07-05T06:55:06;3.92;;;1.23;;
59040;SDS011;44825;53.200;6.448;2022-07-05T06:57:34;6.07;;;1.13;;
59040;SDS011;44825;53.200;6.448;2022-07-05T07:00:02;4.63;;;0.90;;
59040;SDS011;44825;53.200;6.448;2022-07-05T07:02:30;5.05;;;1.20;;
59040;SDS011;44825;53.200;6.448;2022-07-05T07:04:57;3.92;;;0.73;;
59040;SDS011;44825;53.200;6.448;2022-07-05T07:07:26;2.95;;;0.95;;
59040;SDS011;44825;53.200;6.448;2022-07-05T07:10:11;5.85;;;0.73;;
59040;SDS011;44825;53.200;6.448;2022-07-05T07:12:38;7.68;;;1.30;;
59040;SDS011;44825;53.200;6.448;2022-07-05T07:15:06;5.72;;;1.00;;
59040;SDS011;44825;53.200;6.448;2022-07-05T07:17:34;5.75;;;1.20;;
59040;SDS011;44825;53.200;6.448;2022-07-05T07:20:01;8.15;;;1.27;;
59040;SDS011;44825;53.200;6.448;2022-07-05T07:22:30;4.65;;;0.90;;
59040;SDS011;44825;53.200;6.448;2022-07-05T07:24:58;5.68;;;1.63;;
59040;SDS011;44825;53.200;6.448;2022-07-05T07:27:25;3.83;;;0.80;;
59040;SDS011;44825;53.200;6.448;2022-07-05T07:29:53;4.50;;;0.80;;
59040;SDS011;44825;53.200;6.448;2022-07-05T07:32:20;5.05;;;0.80;;
59040;SDS011;44825;53.200;6.448;2022-07-05T07:34:47;4.70;;;0.82;;
59040;SDS011;44825;53.200;6.448;2022-07-05T07:37:15;3.75;;;0.82;;
59040;SDS011;44825;53.200;6.448;2022-07-05T07:39:45;4.00;;;0.80;;
59040;SDS011;44825;53.200;6.448;2022-07-05T07:42:13;6.38;;;0.93;;
59040;SDS011;44825;53.200;6.448;2022-07-05T07:44:40;3.80;;;0.77;;
59040;SDS011;44825;53.200;6.448;2022-07-05T07:47:07;5.43;;;0.98;;
59040;SDS011;44825;53.200;6.448;2022-07-05T07:49:34;6.45;;;1.30;;
59040;SDS011;44825;53.200;6.448;2022-07-05T07:52:02;3.95;;;1.10;;
59040;SDS011;44825;53.200;6.448;2022-07-05T07:54:32;3.88;;;0.73;;
59040;SDS011;44825;53.200;6.448;2022-07-05T07:57:02;10.68;;;1.15;;
59040;SDS011;44825;53.200;6.448;2022-07-05T07:59:30;5.30;;;0.90;;
59040;SDS011;44825;53.200;6.448;2022-07-05T08:01:58;3.80;;;0.80;;
59040;SDS011;44825;53.200;6.448;2022-07-05T08:04:25;3.45;;;1.00;;
59040;SDS011;44825;53.200;6.448;2022-07-05T08:06:52;5.60;;;1.05;;
59040;SDS011;44825;53.200;6.448;2022-07-05T08:09:20;8.70;;;1.17;;
59040;SDS011;44825;53.200;6.448;2022-07-05T08:11:47;8.25;;;1.17;;
59040;SDS011;44825;53.200;6.448;2022-07-05T08:14:16;4.22;;;0.70;;
59040;SDS011;44825;53.200;6.448;2022-07-05T08:16:45;7.13;;;1.20;;
59040;SDS011;44825;53.200;6.448;2022-07-05T08:19:13;3.75;;;0.90;;
59040;SDS011;44825;53.200;6.448;2022-07-05T08:21:59;4.82;;;1.10;;
59040;SDS011;44825;53.200;6.448;2022-07-05T08:24:27;4.10;;;1.02;;
59040;SDS011;44825;53.200;6.448;2022-07-05T08:26:54;5.43;;;1.30;;
59040;SDS011;44825;53.200;6.448;2022-07-05T08:29:23;6.38;;;1.15;;
59040;SDS011;44825;53.200;6.448;2022-07-05T08:31:50;4.03;;;1.00;;
59040;SDS011;44825;53.200;6.448;2022-07-05T08:34:18;10.45;;;1.75;;
59040;SDS011;44825;53.200;6.448;2022-07-05T08:36:46;8.60;;;1.60;;
59040;SDS011;44825;53.200;6.448;2022-07-05T08:39:14;6.72;;;1.00;;
59040;SDS011;44825;53.200;6.448;2022-07-05T08:41:42;4.60;;;0.80;;
59040;SDS011;44825;53.200;6.448;2022-07-05T08:44:13;5.82;;;0.85;;
59040;SDS011;44825;53.200;6.448;2022-07-05T08:46:45;5.10;;;0.90;;
59040;SDS011;44825;53.200;6.448;2022-07-05T08:49:15;3.30;;;0.82;;
59040;SDS011;44825;53.200;6.448;2022-07-05T08:51:47;4.63;;;0.73;;
59040;SDS011;44825;53.200;6.448;2022-07-05T08:54:16;5.90;;;1.23;;
59040;SDS011;44825;53.200;6.448;2022-07-05T08:56:44;2.38;;;0.70;;
59040;SDS011;44825;53.200;6.448;2022-07-05T08:59:12;5.05;;;0.88;;
59040;SDS011;44825;53.200;6.448;2022-07-05T09:01:39;4.30;;;0.70;;
59040;SDS011;44825;53.200;6.448;2022-07-05T09:04:09;7.63;;;1.63;;
59040;SDS011;44825;53.200;6.448;2022-07-05T09:06:38;5.60;;;0.88;;
59040;SDS011;44825;53.200;6.448;2022-07-05T09:09:06;4.82;;;1.00;;
59040;SDS011;44825;53.200;6.448;2022-07-05T09:11:35;5.25;;;1.05;;
59040;SDS011;44825;53.200;6.448;2022-07-05T09:14:04;4.95;;;0.93;;
59040;SDS011;44825;53.200;6.448;2022-07-05T09:16:33;9.32;;;1.60;;
59040;SDS011;44825;53.200;6.448;2022-07-05T09:19:11;10.63;;;1.50;;
59040;SDS011;44825;53.200;6.448;2022-07-05T09:21:38;14.90;;;1.27;;
59040;SDS011;44825;53.200;6.448;2022-07-05T09:24:06;8.25;;;1.38;;
59040;SDS011;44825;53.200;6.448;2022-07-05T09:26:35;4.60;;;0.85;;
59040;SDS011;44825;53.200;6.448;2022-07-05T09:29:05;14.75;;;2.03;;
59040;SDS011;44825;53.200;6.448;2022-07-05T09:31:34;8.07;;;1.20;;
59040;SDS011;44825;53.200;6.448;2022-07-05T09:34:03;5.93;;;0.90;;
59040;SDS011;44825;53.200;6.448;2022-07-05T09:39:38;84.60;;;6.40;;
59040;SDS011;44825;53.200;6.448;2022-07-05T09:42:10;15.10;;;2.00;;
59040;SDS011;44825;53.200;6.448;2022-07-05T09:44:38;5.28;;;1.13;;
59040;SDS011;44825;53.200;6.448;2022-07-05T09:47:09;14.18;;;1.48;;
59040;SDS011;44825;53.200;6.448;2022-07-05T09:49:38;64.28;;;4.28;;
59040;SDS011;44825;53.200;6.448;2022-07-05T09:52:08;5.97;;;1.17;;
59040;SDS011;44825;53.200;6.448;2022-07-05T09:54:37;28.63;;;3.90;;
59040;SDS011;44825;53.200;6.448;2022-07-05T09:57:06;7.68;;;1.23;;
59040;SDS011;44825;53.200;6.448;2022-07-05T09:59:34;11.38;;;1.65;;
59040;SDS011;44825;53.200;6.448;2022-07-05T10:02:02;61.17;;;7.45;;
59040;SDS011;44825;53.200;6.448;2022-07-05T10:04:29;6.30;;;1.15;;
59040;SDS011;44825;53.200;6.448;2022-07-05T10:06:57;23.98;;;4.28;;
59040;SDS011;44825;53.200;6.448;2022-07-05T10:09:24;27.13;;;3.58;;
59040;SDS011;44825;53.200;6.448;2022-07-05T10:11:53;8.75;;;1.38;;
59040;SDS011;44825;53.200;6.448;2022-07-05T10:14:21;7.93;;;1.38;;
59040;SDS011;44825;53.200;6.448;2022-07-05T10:16:59;5.18;;;0.93;;
59040;SDS011;44825;53.200;6.448;2022-07-05T10:19:29;4.47;;;1.20;;
59040;SDS011;44825;53.200;6.448;2022-07-05T10:22:00;4.07;;;0.97;;
59040;SDS011;44825;53.200;6.448;2022-07-05T10:24:31;6.38;;;1.38;;
59040;SDS011;44825;53.200;6.448;2022-07-05T10:29:33;4.32;;;1.25;;
59040;SDS011;44825;53.200;6.448;2022-07-05T10:32:01;4.28;;;0.80;;
59040;SDS011;44825;53.200;6.448;2022-07-05T10:34:32;63.05;;;2.80;;
59040;SDS011;44825;53.200;6.448;2022-07-05T10:37:00;3.20;;;0.90;;
59040;SDS011;44825;53.200;6.448;2022-07-05T10:39:27;17.15;;;1.83;;
59040;SDS011;44825;53.200;6.448;2022-07-05T10:41:55;94.10;;;7.68;;
59040;SDS011;44825;53.200;6.448;2022-07-05T10:44:27;26.58;;;3.28;;
59040;SDS011;44825;53.200;6.448;2022-07-05T10:47:07;5.72;;;1.23;;
59040;SDS011;44825;53.200;6.448;2022-07-05T10:49:37;5.15;;;0.80;;
59040;SDS011;44825;53.200;6.448;2022-07-05T10:52:20;5.63;;;1.02;;
59040;SDS011;44825;53.200;6.448;2022-07-05T10:57:49;3.67;;;1.15;;
59040;SDS011;44825;53.200;6.448;2022-07-05T11:03:52;5.85;;;0.88;;
59040;SDS011;44825;53.200;6.448;2022-07-05T11:06:23;6.63;;;1.10;;
59040;SDS011;44825;53.200;6.448;2022-07-05T11:11:42;5.13;;;0.80;;
59040;SDS011;44825;53.200;6.448;2022-07-05T11:17:14;7.80;;;1.10;;
59040;SDS011;44825;53.200;6.448;2022-07-05T11:20:09;8.50;;;1.75;;
59040;SDS011;44825;53.200;6.448;2022-07-05T11:22:39;6.47;;;1.42;;
59040;SDS011;44825;53.200;6.448;2022-07-05T11:25:08;6.45;;;1.00;;
59040;SDS011;44825;53.200;6.448;2022-07-05T11:30:49;6.60;;;0.88;;
59040;SDS011;44825;53.200;6.448;2022-07-05T11:33:31;3.47;;;0.90;;
59040;SDS011;44825;53.200;6.448;2022-07-05T11:36:01;5.30;;;0.80;;
59040;SDS011;44825;53.200;6.448;2022-07-05T11:38:29;2.22;;;0.50;;
59040;SDS011;44825;53.200;6.448;2022-07-05T11:41:10;3.20;;;0.75;;
59040;SDS011;44825;53.200;6.448;2022-07-05T11:43:38;9.20;;;1.27;;
59040;SDS011;44825;53.200;6.448;2022-07-05T11:46:07;2.42;;;0.77;;
59040;SDS011;44825;53.200;6.448;2022-07-05T11:48:35;6.60;;;0.82;;
59040;SDS011;44825;53.200;6.448;2022-07-05T11:51:15;5.82;;;1.30;;
59040;SDS011;44825;53.200;6.448;2022-07-05T11:53:43;2.70;;;0.50;;
59040;SDS011;44825;53.200;6.448;2022-07-05T11:56:11;6.15;;;1.20;;
59040;SDS011;44825;53.200;6.448;2022-07-05T11:58:39;6.30;;;1.52;;
59040;SDS011;44825;53.200;6.448;2022-07-05T12:01:06;7.68;;;1.20;;
59040;SDS011;44825;53.200;6.448;2022-07-05T12:03:34;6.40;;;1.00;;
59040;SDS011;44825;53.200;6.448;2022-07-05T12:06:11;6.60;;;1.08;;
59040;SDS011;44825;53.200;6.448;2022-07-05T12:08:40;7.70;;;1.08;;
59040;SDS011;44825;53.200;6.448;2022-07-05T12:11:09;4.07;;;0.80;;
59040;SDS011;44825;53.200;6.448;2022-07-05T12:14:06;4.53;;;1.23;;
59040;SDS011;44825;53.200;6.448;2022-07-05T12:16:34;7.53;;;1.00;;
59040;SDS011;44825;53.200;6.448;2022-07-05T12:19:01;9.07;;;1.45;;
59040;SDS011;44825;53.200;6.448;2022-07-05T12:21:30;4.22;;;1.13;;
59040;SDS011;44825;53.200;6.448;2022-07-05T12:23:59;5.43;;;0.90;;
59040;SDS011;44825;53.200;6.448;2022-07-05T12:26:26;12.48;;;1.23;;
59040;SDS011;44825;53.200;6.448;2022-07-05T12:28:54;6.28;;;1.02;;
59040;SDS011;44825;53.200;6.448;2022-07-05T12:31:22;5.95;;;1.10;;
59040;SDS011;44825;53.200;6.448;2022-07-05T12:33:51;7.32;;;0.90;;
59040;SDS011;44825;53.200;6.448;2022-07-05T12:36:19;6.68;;;1.30;;
59040;SDS011;44825;53.200;6.448;2022-07-05T12:38:48;9.40;;;5.10;;
59040;SDS011;44825;53.200;6.448;2022-07-05T12:41:21;5.55;;;1.33;;
59040;SDS011;44825;53.200;6.448;2022-07-05T12:43:50;7.03;;;0.80;;
59040;SDS011;44825;53.200;6.448;2022-07-05T12:46:18;5.78;;;1.55;;
59040;SDS011;44825;53.200;6.448;2022-07-05T12:48:50;5.57;;;1.02;;
59040;SDS011;44825;53.200;6.448;2022-07-05T12:51:30;21.95;;;2.65;;
59040;SDS011;44825;53.200;6.448;2022-07-05T12:53:59;30.63;;;2.50;;
59040;SDS011;44825;53.200;6.448;2022-07-05T12:56:49;18.65;;;2.00;;
59040;SDS011;44825;53.200;6.448;2022-07-05T12:59:35;17.27;;;2.05;;
59040;SDS011;44825;53.200;6.448;2022-07-05T13:02:03;4.43;;;1.13;;
59040;SDS011;44825;53.200;6.448;2022-07-05T13:04:30;4.97;;;1.05;;
59040;SDS011;44825;53.200;6.448;2022-07-05T13:06:58;5.25;;;0.88;;
59040;SDS011;44825;53.200;6.448;2022-07-05T13:09:32;9.07;;;1.00;;
59040;SDS011;44825;53.200;6.448;2022-07-05T13:12:08;2.58;;;0.70;;
59040;SDS011;44825;53.200;6.448;2022-07-05T13:14:38;5.13;;;0.75;;
59040;SDS011;44825;53.200;6.448;2022-07-05T13:17:07;2.97;;;0.80;;
59040;SDS011;44825;53.200;6.448;2022-07-05T13:19:35;2.22;;;0.80;;
59040;SDS011;44825;53.200;6.448;2022-07-05T13:22:03;5.45;;;0.75;;
59040;SDS011;44825;53.200;6.448;2022-07-05T13:24:31;5.22;;;1.10;;
59040;SDS011;44825;53.200;6.448;2022-07-05T13:26:59;6.28;;;0.98;;
59040;SDS011;44825;53.200;6.448;2022-07-05T13:29:28;4.13;;;1.00;;
59040;SDS011;44825;53.200;6.448;2022-07-05T13:31:56;5.72;;;1.08;;
59040;SDS011;44825;53.200;6.448;2022-07-05T13:34:23;8.77;;;1.40;;
59040;SDS011;44825;53.200;6.448;2022-07-05T13:36:52;8.80;;;1.17;;
59040;SDS011;44825;53.200;6.448;2022-07-05T13:39:20;10.98;;;1.13;;
59040;SDS011;44825;53.200;6.448;2022-07-05T13:41:48;7.00;;;1.20;;
59040;SDS011;44825;53.200;6.448;2022-07-05T13:44:17;10.98;;;1.40;;
59040;SDS011;44825;53.200;6.448;2022-07-05T13:46:46;8.57;;;1.27;;
59040;SDS011;44825;53.200;6.448;2022-07-05T13:49:13;8.85;;;1.25;;
59040;SDS011;44825;53.200;6.448;2022-07-05T13:51:41;6.85;;;1.73;;
59040;SDS011;44825;53.200;6.448;2022-07-05T13:54:08;6.32;;;1.00;;
59040;SDS011;44825;53.200;6.448;2022-07-05T13:56:35;6.72;;;1.15;;
59040;SDS011;44825;53.200;6.448;2022-07-05T13:59:03;4.07;;;1.00;;
59040;SDS011;44825;53.200;6.448;2022-07-05T14:01:30;6.00;;;1.10;;
59040;SDS011;44825;53.200;6.448;2022-07-05T14:04:00;5.97;;;1.30;;
59040;SDS011;44825;53.200;6.448;2022-07-05T14:06:28;11.85;;;1.50;;
59040;SDS011;44825;53.200;6.448;2022-07-05T14:08:57;6.20;;;1.27;;
59040;SDS011;44825;53.200;6.448;2022-07-05T14:11:25;8.05;;;1.35;;
59040;SDS011;44825;53.200;6.448;2022-07-05T14:13:52;9.57;;;1.33;;
59040;SDS011;44825;53.200;6.448;2022-07-05T14:16:20;9.90;;;1.35;;
59040;SDS011;44825;53.200;6.448;2022-07-05T14:18:47;5.60;;;0.73;;
59040;SDS011;44825;53.200;6.448;2022-07-05T14:21:16;5.50;;;1.08;;
59040;SDS011;44825;53.200;6.448;2022-07-05T14:23:44;8.13;;;1.25;;
59040;SDS011;44825;53.200;6.448;2022-07-05T14:26:12;4.75;;;0.85;;
59040;SDS011;44825;53.200;6.448;2022-07-05T14:28:40;6.63;;;1.08;;
59040;SDS011;44825;53.200;6.448;2022-07-05T14:31:07;18.70;;;1.65;;
59040;SDS011;44825;53.200;6.448;2022-07-05T14:33:35;7.47;;;0.95;;
59040;SDS011;44825;53.200;6.448;2022-07-05T14:36:03;7.93;;;1.95;;
59040;SDS011;44825;53.200;6.448;2022-07-05T14:38:32;8.90;;;1.00;;
59040;SDS011;44825;53.200;6.448;2022-07-05T14:40:59;6.63;;;0.90;;
59040;SDS011;44825;53.200;6.448;2022-07-05T14:43:27;5.22;;;0.70;;
59040;SDS011;44825;53.200;6.448;2022-07-05T14:45:54;4.55;;;1.08;;
59040;SDS011;44825;53.200;6.448;2022-07-05T14:48:22;8.68;;;1.35;;
59040;SDS011;44825;53.200;6.448;2022-07-05T14:50:50;3.42;;;0.70;;
59040;SDS011;44825;53.200;6.448;2022-07-05T14:53:17;3.42;;;0.80;;
59040;SDS011;44825;53.200;6.448;2022-07-05T14:55:46;6.57;;;1.00;;
59040;SDS011;44825;53.200;6.448;2022-07-05T14:58:14;2.75;;;0.90;;
59040;SDS011;44825;53.200;6.448;2022-07-05T15:00:42;5.85;;;1.10;;
59040;SDS011;44825;53.200;6.448;2022-07-05T15:03:09;2.22;;;0.70;;
59040;SDS011;44825;53.200;6.448;2022-07-05T15:05:36;4.60;;;1.02;;
59040;SDS011;44825;53.200;6.448;2022-07-05T15:08:04;4.60;;;0.80;;
59040;SDS011;44825;53.200;6.448;2022-07-05T15:10:31;4.65;;;1.10;;
59040;SDS011;44825;53.200;6.448;2022-07-05T15:13:00;4.38;;;1.23;;
59040;SDS011;44825;53.200;6.448;2022-07-05T15:15:27;3.22;;;0.93;;